createdAt,value
2018-03-25T00:00:03.508Z,96704.53
2018-03-25T00:02:32.512Z,96705.27
2018-03-25T00:05:02.203Z,96699.64
2018-03-25T00:07:31.494Z,96703.77
2018-03-25T00:10:01.630Z,96702.80
2018-03-25T00:12:34.417Z,96703.58
2018-03-25T00:15:09.516Z,96710.52
2018-03-25T00:17:40.745Z,96712.78
2018-03-25T00:20:12.748Z,96707.91
2018-03-25T00:22:47.953Z,96704.98
2018-03-25T00:25:22.163Z,96709.42
2018-03-25T00:27:53.724Z,96705.71
2018-03-25T00:30:28.478Z,96705.29
2018-03-25T00:33:02.235Z,96707.25
2018-03-25T00:35:34.025Z,96707.99
2018-03-25T00:38:06.674Z,96710.61
2018-03-25T00:40:38.349Z,96706.80
2018-03-25T00:43:13.817Z,96703.96
2018-03-25T00:45:46.008Z,96698.05
2018-03-25T00:48:18.910Z,96704.02
2018-03-25T00:50:51.959Z,96703.81
2018-03-25T00:53:21.755Z,96703.73
2018-03-25T00:55:51.493Z,96704.94
2018-03-25T00:58:21.733Z,96705.01
2018-03-25T01:00:51.038Z,96703.75
2018-03-25T01:03:20.622Z,96702.48
2018-03-25T01:05:50.196Z,96696.73
2018-03-25T01:08:19.524Z,96693.35
2018-03-25T01:10:48.894Z,96690.17
2018-03-25T01:13:20.820Z,96699.50
2018-03-25T01:16:20.629Z,96699.72
2018-03-25T01:18:54.378Z,96698.95
2018-03-25T01:21:24.596Z,96694.17
2018-03-25T01:23:58.144Z,96696.04
2018-03-25T01:26:36.789Z,96692.87
2018-03-25T01:29:11.003Z,96695.03
2018-03-25T01:31:42.085Z,96696.87
2018-03-25T01:34:12.463Z,96696.01
2018-03-25T01:36:49.882Z,96698.98
2018-03-25T01:39:20.663Z,96697.19
2018-03-25T01:41:57.187Z,96695.38
2018-03-25T01:44:28.864Z,96697.69
2018-03-25T01:47:00.664Z,96692.36
2018-03-25T01:49:30.879Z,96693.97
2018-03-25T01:52:00.206Z,96695.73
2018-03-25T01:54:29.555Z,96697.74
2018-03-25T01:56:58.975Z,96697.39
2018-03-25T01:59:28.279Z,96693.84
2018-03-25T02:02:00.058Z,96691.64
2018-03-25T02:04:30.903Z,96697.55
2018-03-25T02:07:04.859Z,96695.17
2018-03-25T02:09:36.988Z,96693.58
2018-03-25T02:12:10.071Z,96692.50
2018-03-25T02:14:43.865Z,96689.31
2018-03-25T02:17:17.112Z,96690.33
2018-03-25T02:19:46.655Z,96690.80
2018-03-25T02:22:16.323Z,96691.34
2018-03-25T02:24:45.683Z,96692.44
2018-03-25T02:27:18.209Z,96688.42
2018-03-25T02:30:08.866Z,96693.27
2018-03-25T02:32:42.780Z,96697.50
2018-03-25T02:35:13.507Z,96698.89
2018-03-25T02:37:44.816Z,96709.72
2018-03-25T02:40:16.343Z,96713.44
2018-03-25T02:42:51.617Z,96704.47
2018-03-25T02:48:32.357Z,96714.91
2018-03-25T02:51:06.972Z,96712.73
2018-03-25T02:53:39.291Z,96705.16
2018-03-25T02:56:12.674Z,96707.13
2018-03-25T02:58:44.053Z,96708.52
2018-03-25T03:01:15.022Z,96715.86
2018-03-25T03:04:01.645Z,96709.07
2018-03-25T03:06:38.659Z,96719.21
2018-03-25T03:09:18.272Z,96718.55
2018-03-25T03:11:49.703Z,96719.66
2018-03-25T03:14:20.563Z,96721.25
2018-03-25T03:16:50.517Z,96715.83
2018-03-25T03:19:21.167Z,96715.09
2018-03-25T03:21:52.858Z,96716.41
2018-03-25T03:24:24.202Z,96714.19
2018-03-25T03:26:56.913Z,96716.05
2018-03-25T03:29:26.402Z,96710.70
2018-03-25T03:31:55.716Z,96712.41
2018-03-25T03:34:29.455Z,96714.75
2018-03-25T03:37:00.384Z,96721.59
2018-03-25T03:39:31.106Z,96717.83
2018-03-25T03:42:00.408Z,96714.48
2018-03-25T03:44:29.740Z,96717.00
2018-03-25T03:46:59.062Z,96722.66
2018-03-25T03:49:29.108Z,96719.20
2018-03-25T03:51:59.331Z,96724.47
2018-03-25T03:54:28.890Z,96720.29
2018-03-25T03:56:58.200Z,96723.64
2018-03-25T03:59:27.525Z,96725.45
2018-03-25T04:01:58.907Z,96728.05
2018-03-25T04:04:28.712Z,96727.67
2018-03-25T04:06:59.934Z,96730.78
2018-03-25T04:09:29.774Z,96728.27
2018-03-25T04:12:00.370Z,96731.80
2018-03-25T04:14:32.589Z,96734.77
2018-03-25T04:17:02.723Z,96735.58
2018-03-25T04:19:32.975Z,96731.11
2018-03-25T04:22:02.560Z,96735.12
2018-03-25T04:24:31.877Z,96734.70
2018-03-25T04:27:01.193Z,96736.27
2018-03-25T04:29:30.504Z,96730.58
2018-03-25T04:31:59.880Z,96737.36
2018-03-25T04:34:30.206Z,96740.19
2018-03-25T04:37:01.041Z,96741.78
2018-03-25T04:39:30.646Z,96741.11
2018-03-25T04:42:00.514Z,96741.30
2018-03-25T04:44:31.398Z,96747.14
2018-03-25T04:47:01.978Z,96749.77
2018-03-25T04:49:35.594Z,96751.95
2018-03-25T04:52:07.569Z,96762.17
2018-03-25T04:54:43.169Z,96759.66
2018-03-25T04:57:18.820Z,96752.98
2018-03-25T04:59:51.513Z,96759.16
2018-03-25T05:02:26.161Z,96766.52
2018-03-25T05:04:56.319Z,96769.27
2018-03-25T05:07:26.561Z,96767.03
2018-03-25T05:09:58.329Z,96767.33
2018-03-25T05:15:36.031Z,96774.66
2018-03-25T05:18:06.549Z,96775.38
2018-03-25T05:20:35.864Z,96775.49
2018-03-25T05:23:05.751Z,96774.81
2018-03-25T05:25:35.110Z,96773.67
2018-03-25T05:28:04.830Z,96781.93
2018-03-25T05:30:34.555Z,96788.06
2018-03-25T05:33:04.470Z,96780.48
2018-03-25T05:35:34.489Z,96779.01
2018-03-25T05:38:03.779Z,96784.78
2018-03-25T05:40:33.729Z,96777.20
2018-03-25T05:43:03.421Z,96777.94
2018-03-25T05:45:32.730Z,96784.34
2018-03-25T05:48:02.554Z,96780.05
2018-03-25T05:50:32.966Z,96787.05
2018-03-25T05:53:02.566Z,96792.70
2018-03-25T05:55:31.848Z,96786.31
2018-03-25T05:58:01.351Z,96794.03
2018-03-25T06:00:30.853Z,96800.53
2018-03-25T06:03:00.116Z,96807.70
2018-03-25T06:05:29.491Z,96806.33
2018-03-25T06:07:58.873Z,96803.45
2018-03-25T06:10:28.178Z,96815.16
2018-03-25T06:12:57.541Z,96814.05
2018-03-25T06:15:28.486Z,96820.28
2018-03-25T06:17:59.231Z,96817.00
2018-03-25T06:20:35.320Z,96816.78
2018-03-25T06:23:05.316Z,96823.90
2018-03-25T06:25:34.622Z,96816.25
2018-03-25T06:28:03.927Z,96824.22
2018-03-25T06:30:33.882Z,96829.31
2018-03-25T06:33:03.856Z,96828.34
2018-03-25T06:35:33.236Z,96830.05
2018-03-25T06:38:03.407Z,96840.73
2018-03-25T06:40:33.617Z,96835.50
2018-03-25T06:43:04.398Z,96832.00
2018-03-25T06:45:34.293Z,96835.45
2018-03-25T06:48:03.739Z,96835.84
2018-03-25T06:50:33.455Z,96843.91
2018-03-25T06:53:02.861Z,96851.97
2018-03-25T06:55:32.177Z,96849.69
2018-03-25T06:58:01.455Z,96859.78
2018-03-25T07:00:30.779Z,96856.30
2018-03-25T07:03:00.738Z,96858.56
2018-03-25T07:05:31.041Z,96858.05
2018-03-25T07:08:00.352Z,96867.25
2018-03-25T07:10:33.351Z,96869.63
2018-03-25T07:13:02.671Z,96867.05
2018-03-25T07:15:31.952Z,96872.91
2018-03-25T07:18:02.962Z,96873.34
2018-03-25T07:20:33.107Z,96871.69
2018-03-25T07:23:02.924Z,96880.68
2018-03-25T07:25:32.222Z,96884.00
2018-03-25T07:28:04.241Z,96879.67
2018-03-25T07:30:35.042Z,96885.50
2018-03-25T07:33:09.089Z,96892.72
2018-03-25T07:35:42.032Z,96900.40
2018-03-25T07:38:11.707Z,96900.80
2018-03-25T07:40:41.025Z,96897.66
2018-03-25T07:43:10.334Z,96903.20
2018-03-25T07:45:39.650Z,96892.38
2018-03-25T07:48:09.903Z,96896.03
2018-03-25T07:50:40.556Z,96897.64
2018-03-25T07:53:12.652Z,96899.36
2018-03-25T07:55:42.690Z,96900.55
2018-03-25T07:58:12.860Z,96909.95
2018-03-25T08:00:43.683Z,96902.39
2018-03-25T08:03:14.027Z,96911.16
2018-03-25T08:05:50.944Z,96914.44
2018-03-25T08:08:30.597Z,96917.95
2018-03-25T08:11:07.301Z,96921.47
2018-03-25T08:13:37.382Z,96917.80
2018-03-25T08:16:11.199Z,96918.23
2018-03-25T08:18:45.994Z,96921.63
2018-03-25T08:21:18.770Z,96919.62
2018-03-25T08:23:55.494Z,96920.48
2018-03-25T08:26:28.996Z,96924.79
2018-03-25T08:28:59.193Z,96929.20
2018-03-25T08:31:31.569Z,96929.09
2018-03-25T08:34:06.482Z,96932.39
2018-03-25T08:36:37.483Z,96923.68
2018-03-25T08:39:08.978Z,96921.75
2018-03-25T08:41:41.219Z,96917.67
2018-03-25T08:44:16.837Z,96924.81
2018-03-25T08:46:49.248Z,96924.32
2018-03-25T08:49:26.487Z,96926.61
2018-03-25T08:51:57.004Z,96930.84
2018-03-25T08:54:38.693Z,96927.13
2018-03-25T08:57:14.182Z,96930.08
2018-03-25T08:59:55.185Z,96933.83
2018-03-25T09:02:25.171Z,96931.79
2018-03-25T09:04:54.491Z,96928.63
2018-03-25T09:07:26.643Z,96928.20
2018-03-25T09:09:56.486Z,96927.52
2018-03-25T09:12:26.608Z,96926.02
2018-03-25T09:14:56.723Z,96931.72
2018-03-25T09:17:28.070Z,96930.72
2018-03-25T09:19:58.601Z,96931.05
2018-03-25T09:22:28.299Z,96932.64
2018-03-25T09:25:01.569Z,96934.64
2018-03-25T09:27:31.604Z,96936.18
2018-03-25T09:30:01.664Z,96935.44
2018-03-25T09:32:30.986Z,96933.12
2018-03-25T09:35:00.300Z,96932.16
2018-03-25T09:37:30.720Z,96932.93
2018-03-25T09:40:00.030Z,96937.86
2018-03-25T09:42:41.404Z,96936.50
2018-03-25T09:45:16.461Z,96935.73
2018-03-25T09:47:45.957Z,96944.28
2018-03-25T09:50:16.125Z,96946.13
2018-03-25T09:52:46.172Z,96949.22
2018-03-25T09:55:15.465Z,96950.00
2018-03-25T09:57:44.789Z,96953.81
2018-03-25T10:00:14.868Z,96952.91
2018-03-25T10:02:50.390Z,96958.22
2018-03-25T10:05:19.739Z,96954.45
2018-03-25T10:07:49.039Z,96960.56
2018-03-25T10:10:18.494Z,96959.43
2018-03-25T10:12:47.839Z,96956.12
2018-03-25T10:15:17.143Z,96960.05
2018-03-25T10:17:46.627Z,96959.27
2018-03-25T10:20:16.301Z,96958.13
2018-03-25T10:22:45.762Z,96956.16
2018-03-25T10:25:15.160Z,96959.80
2018-03-25T10:27:44.504Z,96958.21
2018-03-25T10:30:13.803Z,96965.38
2018-03-25T10:32:43.117Z,96958.92
2018-03-25T10:35:12.644Z,96956.14
2018-03-25T10:37:41.941Z,96957.17
2018-03-25T10:40:12.212Z,96959.34
2018-03-25T10:42:41.538Z,96956.23
2018-03-25T10:45:12.976Z,96947.71
2018-03-25T10:47:44.978Z,96953.02
2018-03-25T10:50:15.591Z,96949.97
2018-03-25T10:52:45.959Z,96955.07
2018-03-25T10:55:15.946Z,96951.66
2018-03-25T10:57:50.170Z,96950.50
2018-03-25T11:00:19.840Z,96954.41
2018-03-25T11:02:49.204Z,96943.70
2018-03-25T11:05:18.526Z,96950.12
2018-03-25T11:07:52.536Z,96950.91
2018-03-25T11:10:24.190Z,96949.42
2018-03-25T11:12:57.274Z,96946.86
2018-03-25T11:15:26.628Z,96947.33
2018-03-25T11:17:55.989Z,96944.14
2018-03-25T11:20:25.607Z,96943.39
2018-03-25T11:22:56.993Z,96941.42
2018-03-25T11:25:27.906Z,96945.97
2018-03-25T11:27:57.502Z,96947.57
2018-03-25T11:30:26.842Z,96942.80
2018-03-25T11:32:57.168Z,96940.47
2018-03-25T11:35:26.602Z,96937.41
2018-03-25T11:37:56.687Z,96938.42
2018-03-25T11:40:26.109Z,96947.34
2018-03-25T11:42:55.441Z,96932.09
2018-03-25T11:45:24.716Z,96932.66
2018-03-25T11:47:54.385Z,96939.19
2018-03-25T11:50:23.743Z,96937.77
2018-03-25T11:52:54.137Z,96927.29
2018-03-25T11:55:23.641Z,96925.61
2018-03-25T11:57:52.966Z,96928.87
2018-03-25T12:00:22.399Z,96930.30
2018-03-25T12:02:51.944Z,96925.28
2018-03-25T12:05:21.280Z,96917.66
2018-03-25T12:07:50.718Z,96921.48
2018-03-25T12:10:20.114Z,96918.30
2018-03-25T12:12:49.552Z,96904.70
2018-03-25T12:15:19.203Z,96907.08
2018-03-25T12:17:49.565Z,96904.63
2018-03-25T12:20:18.887Z,96899.87
2018-03-25T12:22:48.318Z,96904.63
2018-03-25T12:25:18.094Z,96901.37
2018-03-25T12:27:48.052Z,96897.41
2018-03-25T12:30:17.990Z,96889.50
2018-03-25T12:32:47.417Z,96887.89
2018-03-25T12:35:18.155Z,96890.69
2018-03-25T12:37:50.115Z,96889.62
2018-03-25T12:40:20.427Z,96883.23
2018-03-25T12:43:03.017Z,96881.33
2018-03-25T12:45:41.635Z,96882.42
2018-03-25T12:48:27.327Z,96881.35
2018-03-25T12:51:01.098Z,96883.14
2018-03-25T12:53:33.441Z,96892.12
2018-03-25T12:56:04.834Z,96886.30
2018-03-25T12:58:35.564Z,96883.59
2018-03-25T13:01:07.577Z,96883.00
2018-03-25T13:06:17.421Z,96881.72
2018-03-25T13:08:49.436Z,96878.91
2018-03-25T13:11:21.953Z,96880.13
2018-03-25T13:14:07.856Z,96881.33
2018-03-25T13:16:39.887Z,96873.95
2018-03-25T13:19:13.514Z,96872.84
2018-03-25T13:21:53.173Z,96873.30
2018-03-25T13:24:24.774Z,96869.97
2018-03-25T13:26:55.515Z,96867.61
2018-03-25T13:29:25.502Z,96870.02
2018-03-25T13:31:55.762Z,96869.98
2018-03-25T13:34:29.374Z,96871.54
2018-03-25T13:36:58.847Z,96875.14
2018-03-25T13:39:29.678Z,96871.41
2018-03-25T13:42:00.912Z,96867.95
2018-03-25T13:44:35.939Z,96869.29
2018-03-25T13:47:07.202Z,96865.03
2018-03-25T13:49:39.268Z,96863.84
2018-03-25T13:52:18.337Z,96858.34
2018-03-25T13:54:50.868Z,96857.97
2018-03-25T13:57:23.290Z,96856.48
2018-03-25T13:59:53.505Z,96857.52
2018-03-25T14:05:12.250Z,96846.07
2018-03-25T14:07:47.105Z,96853.09
2018-03-25T14:10:18.735Z,96852.56
2018-03-25T14:12:51.706Z,96847.73
2018-03-25T14:15:21.999Z,96847.23
2018-03-25T14:17:53.019Z,96844.29
2018-03-25T14:20:23.993Z,96835.97
2018-03-25T14:25:31.887Z,96837.91
2018-03-25T14:28:04.687Z,96837.00
2018-03-25T14:30:35.628Z,96843.00
2018-03-25T14:36:22.324Z,96838.44
2018-03-25T14:41:55.961Z,96834.62
2018-03-25T14:44:25.971Z,96837.76
2018-03-25T14:46:57.401Z,96836.74
2018-03-25T14:49:26.709Z,96835.80
2018-03-25T14:51:57.695Z,96834.98
2018-03-25T14:54:32.564Z,96825.47
2018-03-25T14:57:03.753Z,96831.26
2018-03-25T14:59:35.808Z,96829.75
2018-03-25T15:02:26.572Z,96828.38
2018-03-25T15:04:56.938Z,96828.64
2018-03-25T15:07:27.762Z,96829.87
2018-03-25T15:09:59.849Z,96831.22
2018-03-25T15:12:31.998Z,96827.42
2018-03-25T15:15:07.720Z,96822.97
2018-03-25T15:17:37.298Z,96817.63
2018-03-25T15:20:07.402Z,96812.88
2018-03-25T15:22:36.845Z,96819.97
2018-03-25T15:25:09.285Z,96820.88
2018-03-25T15:28:03.486Z,96820.67
2018-03-25T15:30:39.525Z,96827.17
2018-03-25T15:35:56.865Z,96836.33
2018-03-25T15:38:27.115Z,96834.30
2018-03-25T15:40:56.893Z,96843.38
2018-03-25T15:43:26.456Z,96845.97
2018-03-25T15:45:55.824Z,96847.53
2018-03-25T15:48:25.424Z,96844.27
2018-03-25T15:50:54.797Z,96835.47
2018-03-25T15:53:24.186Z,96831.23
2018-03-25T15:55:53.605Z,96828.98
2018-03-25T15:58:23.278Z,96829.92
2018-03-25T16:00:52.618Z,96829.01
2018-03-25T16:03:23.090Z,96835.28
2018-03-25T16:05:52.508Z,96831.45
2018-03-25T16:08:22.543Z,96840.44
2018-03-25T16:10:52.999Z,96832.38
2018-03-25T16:13:22.489Z,96834.47
2018-03-25T16:15:51.849Z,96834.19
2018-03-25T16:18:22.472Z,96832.75
2018-03-25T16:20:53.676Z,96833.47
2018-03-25T16:23:23.098Z,96826.69
2018-03-25T16:25:52.909Z,96835.34
2018-03-25T16:28:22.627Z,96832.94
2018-03-25T16:30:55.200Z,96837.73
2018-03-25T16:33:25.399Z,96833.77
2018-03-25T16:38:41.752Z,96833.66
2018-03-25T16:41:11.518Z,96844.39
2018-03-25T16:43:40.912Z,96838.52
2018-03-25T16:46:12.774Z,96839.41
2018-03-25T16:48:43.021Z,96842.69
2018-03-25T16:51:13.317Z,96839.91
2018-03-25T16:53:43.284Z,96838.22
2018-03-25T16:56:12.988Z,96841.33
2018-03-25T16:58:42.468Z,96846.55
2018-03-25T17:01:36.940Z,96845.62
2018-03-25T17:04:15.209Z,96842.22
2018-03-25T17:06:45.957Z,96847.98
2018-03-25T17:09:18.063Z,96851.63
2018-03-25T17:11:49.951Z,96851.48
2018-03-25T17:14:22.305Z,96858.16
2018-03-25T17:16:54.394Z,96856.41
2018-03-25T17:19:27.331Z,96856.23
2018-03-25T17:22:01.377Z,96856.55
2018-03-25T17:24:38.943Z,96855.30
2018-03-25T17:29:47.491Z,96865.23
2018-03-25T17:32:18.380Z,96860.34
2018-03-25T17:34:52.210Z,96860.08
2018-03-25T17:37:23.438Z,96865.11
2018-03-25T17:39:56.482Z,96870.31
2018-03-25T17:42:28.608Z,96876.67
2018-03-25T17:45:02.054Z,96879.82
2018-03-25T17:47:35.216Z,96882.97
2018-03-25T17:50:06.940Z,96881.81
2018-03-25T17:52:46.600Z,96881.22
2018-03-25T17:55:20.663Z,96885.22
2018-03-25T17:57:56.401Z,96887.12
2018-03-25T18:00:30.397Z,96895.76
2018-03-25T18:03:11.153Z,96896.75
2018-03-25T18:05:48.512Z,96901.33
2018-03-25T18:08:21.403Z,96896.77
2018-03-25T18:10:56.115Z,96903.82
2018-03-25T18:13:28.891Z,96902.16
2018-03-25T18:16:01.000Z,96910.22
2018-03-25T18:18:36.722Z,96916.37
2018-03-25T18:21:08.381Z,96913.63
2018-03-25T18:23:39.290Z,96913.39
2018-03-25T18:26:13.565Z,96919.24
2018-03-25T18:28:47.226Z,96918.39
2018-03-25T18:31:26.959Z,96921.37
2018-03-25T18:33:58.917Z,96923.94
2018-03-25T18:36:34.000Z,96931.27
2018-03-25T18:39:10.997Z,96930.88
2018-03-25T18:41:48.145Z,96933.00
2018-03-25T18:44:20.389Z,96932.41
2018-03-25T18:46:53.344Z,96936.10
2018-03-25T18:49:25.594Z,96937.49
2018-03-25T18:51:57.017Z,96940.80
2018-03-25T18:54:31.786Z,96939.80
2018-03-25T18:57:03.720Z,96949.82
2018-03-25T18:59:36.055Z,96946.98
2018-03-25T19:02:09.066Z,96951.84
2018-03-25T19:04:39.796Z,96953.31
2018-03-25T19:07:12.506Z,96954.38
2018-03-25T19:09:44.102Z,96957.02
2018-03-25T19:12:17.309Z,96948.83
2018-03-25T19:14:47.859Z,96945.13
2018-03-25T19:17:18.745Z,96953.25
2018-03-25T19:19:49.187Z,96948.09
2018-03-25T19:22:25.897Z,96943.90
2018-03-25T19:24:56.951Z,96945.48
2018-03-25T19:27:31.785Z,96948.70
2018-03-25T19:30:02.017Z,96947.30
2018-03-25T19:32:33.964Z,96951.20
2018-03-25T19:35:07.063Z,96954.52
2018-03-25T19:37:38.054Z,96952.19
2018-03-25T19:40:08.972Z,96947.94
2018-03-25T19:42:43.503Z,96951.09
2018-03-25T19:45:16.420Z,96945.82
2018-03-25T19:47:47.490Z,96949.72
2018-03-25T19:50:19.109Z,96939.23
2018-03-25T19:52:51.597Z,96948.40
2018-03-25T19:55:24.715Z,96944.34
2018-03-25T19:57:55.075Z,96945.60
2018-03-25T20:00:25.429Z,96948.77
2018-03-25T20:02:59.673Z,96951.83
2018-03-25T20:05:32.408Z,96945.62
2018-03-25T20:08:05.849Z,96948.85
2018-03-25T20:10:38.099Z,96958.31
2018-03-25T20:13:11.118Z,96952.66
2018-03-25T20:15:49.787Z,96955.50
2018-03-25T20:18:20.790Z,96950.72
2018-03-25T20:20:57.603Z,96954.45
2018-03-25T20:23:29.099Z,96959.29
2018-03-25T20:26:01.984Z,96953.14
2018-03-25T20:28:33.384Z,96960.41
2018-03-25T20:31:17.696Z,96962.39
2018-03-25T20:33:55.232Z,96964.70
2018-03-25T20:36:28.613Z,96966.30
2018-03-25T20:39:00.727Z,96967.61
2018-03-25T20:41:32.372Z,96966.55
2018-03-25T20:44:17.418Z,96971.31
2018-03-25T20:46:47.750Z,96965.23
2018-03-25T20:49:18.072Z,96969.06
2018-03-25T20:51:53.526Z,96970.98
2018-03-25T20:54:25.767Z,96967.16
2018-03-25T20:56:56.979Z,96966.45
2018-03-25T20:59:27.476Z,96974.38
2018-03-25T21:01:58.703Z,96967.83
2018-03-25T21:04:29.298Z,96965.03
2018-03-25T21:06:59.569Z,96960.63
2018-03-25T21:09:31.187Z,96954.86
2018-03-25T21:12:03.529Z,96958.63
2018-03-25T21:14:34.320Z,96954.31
2018-03-25T21:17:11.794Z,96953.00
2018-03-25T21:19:43.028Z,96953.17
2018-03-25T21:22:13.972Z,96953.62
2018-03-25T21:24:44.934Z,96952.54
2018-03-25T21:27:16.428Z,96949.91
2018-03-25T21:29:49.099Z,96956.47
2018-03-25T21:32:19.792Z,96959.16
2018-03-25T21:34:51.970Z,96949.98
2018-03-25T21:37:23.542Z,96953.72
2018-03-25T21:40:28.462Z,96953.38
2018-03-25T21:43:02.551Z,96956.91
2018-03-25T21:45:35.454Z,96954.70
2018-03-25T21:48:08.345Z,96963.99
2018-03-25T21:50:41.005Z,96956.74
2018-03-25T21:53:11.805Z,96961.70
2018-03-25T21:55:42.325Z,96955.88
2018-03-25T21:58:12.260Z,96957.78
2018-03-25T22:00:45.296Z,96956.20
2018-03-25T22:03:19.373Z,96956.03
2018-03-25T22:05:55.098Z,96955.53
2018-03-25T22:08:27.585Z,96954.78
2018-03-25T22:10:58.478Z,96951.52
2018-03-25T22:13:29.226Z,96951.73
2018-03-25T22:16:04.011Z,96953.81
2018-03-25T22:18:41.700Z,96949.15
2018-03-25T22:21:12.533Z,96947.61
2018-03-25T22:23:43.698Z,96945.36
2018-03-25T22:26:14.747Z,96946.44
2018-03-25T22:28:46.469Z,96948.64
2018-03-25T22:31:17.817Z,96943.47
2018-03-25T22:33:51.310Z,96938.03
2018-03-25T22:36:24.716Z,96936.20
2018-03-25T22:38:56.118Z,96932.59
2018-03-25T22:41:27.372Z,96930.91
2018-03-25T22:44:00.435Z,96930.58
2018-03-25T22:46:30.897Z,96931.75
2018-03-25T22:49:03.150Z,96927.45
2018-03-25T22:51:36.128Z,96917.85
2018-03-25T22:54:12.097Z,96920.33
2018-03-25T22:56:44.279Z,96916.63
2018-03-25T22:59:16.463Z,96921.70
2018-03-25T23:01:49.942Z,96922.68
2018-03-25T23:04:22.594Z,96925.30
2018-03-25T23:06:52.802Z,96926.85
2018-03-25T23:09:24.109Z,96925.41
2018-03-25T23:11:58.276Z,96922.06
2018-03-25T23:14:30.880Z,96918.46
2018-03-25T23:17:02.373Z,96913.94
2018-03-25T23:19:32.393Z,96915.33
2018-03-25T23:22:04.981Z,96918.08
2018-03-25T23:24:35.606Z,96922.16
2018-03-25T23:27:05.778Z,96927.48
2018-03-25T23:29:36.996Z,96926.26
2018-03-25T23:32:07.628Z,96919.58
2018-03-25T23:34:39.019Z,96920.38
2018-03-25T23:37:15.319Z,96914.84
2018-03-25T23:39:46.485Z,96916.47
2018-03-25T23:42:17.765Z,96906.03
2018-03-25T23:44:51.731Z,96906.60
2018-03-25T23:47:25.912Z,96895.92
2018-03-25T23:49:57.788Z,96899.73
2018-03-25T23:52:28.172Z,96901.54
2018-03-25T23:55:00.053Z,96902.66
2018-03-25T23:57:31.814Z,96902.20
